sensor_id;sensor_type;location;lat;lon;timestamp;temperature;humidity
77056;SHT30;67471;44.918;8.614;2023-07-28T00:00:08;23.93;50.00
77056;SHT30;67471;44.918;8.614;2023-07-28T00:03:16;23.73;50.59
77056;SHT30;67471;44.918;8.614;2023-07-28T00:06:20;23.92;50.11
77056;SHT30;67471;44.918;8.614;2023-07-28T00:09:24;23.85;50.37
77056;SHT30;67471;44.918;8.614;2023-07-28T00:12:27;23.77;50.30
77056;SHT30;67471;44.918;8.614;2023-07-28T00:15:31;23.76;50.32
77056;SHT30;67471;44.918;8.614;2023-07-28T00:18:35;23.62;50.44
77056;SHT30;67471;44.918;8.614;2023-07-28T00:21:39;23.38;51.22
77056;SHT30;67471;44.918;8.614;2023-07-28T00:24:43;23.54;50.61
77056;SHT30;67471;44.918;8.614;2023-07-28T00:27:47;23.54;50.59
77056;SHT30;67471;44.918;8.614;2023-07-28T00:30:51;23.51;50.68
77056;SHT30;67471;44.918;8.614;2023-07-28T00:33:55;23.45;50.77
77056;SHT30;67471;44.918;8.614;2023-07-28T00:36:58;23.39;51.11
77056;SHT30;67471;44.918;8.614;2023-07-28T00:40:02;23.31;51.19
77056;SHT30;67471;44.918;8.614;2023-07-28T00:43:07;23.35;51.17
77056;SHT30;67471;44.918;8.614;2023-07-28T00:46:13;23.37;51.13
77056;SHT30;67471;44.918;8.614;2023-07-28T00:49:17;23.21;51.28
77056;SHT30;67471;44.918;8.614;2023-07-28T00:52:20;23.05;51.95
77056;SHT30;67471;44.918;8.614;2023-07-28T00:55:24;23.28;51.48
77056;SHT30;67471;44.918;8.614;2023-07-28T00:58:29;23.12;51.76
77056;SHT30;67471;44.918;8.614;2023-07-28T01:01:33;22.94;52.21
77056;SHT30;67471;44.918;8.614;2023-07-28T01:04:37;22.84;52.36
77056;SHT30;67471;44.918;8.614;2023-07-28T01:07:59;22.67;52.40
77056;SHT30;67471;44.918;8.614;2023-07-28T01:11:06;22.63;52.76
77056;SHT30;67471;44.918;8.614;2023-07-28T01:14:10;22.50;52.78
77056;SHT30;67471;44.918;8.614;2023-07-28T01:17:13;22.59;51.96
77056;SHT30;67471;44.918;8.614;2023-07-28T01:20:18;22.59;52.00
77056;SHT30;67471;44.918;8.614;2023-07-28T01:27:00;22.73;52.12
77056;SHT30;67471;44.918;8.614;2023-07-28T01:30:04;22.78;52.54
77056;SHT30;67471;44.918;8.614;2023-07-28T01:33:08;22.71;53.20
77056;SHT30;67471;44.918;8.614;2023-07-28T01:36:12;22.76;53.39
77056;SHT30;67471;44.918;8.614;2023-07-28T01:39:16;22.80;53.45
77056;SHT30;67471;44.918;8.614;2023-07-28T01:42:20;22.84;53.43
77056;SHT30;67471;44.918;8.614;2023-07-28T01:45:24;22.80;53.51
77056;SHT30;67471;44.918;8.614;2023-07-28T01:48:27;22.84;53.51
77056;SHT30;67471;44.918;8.614;2023-07-28T01:51:31;22.81;53.91
77056;SHT30;67471;44.918;8.614;2023-07-28T01:54:35;22.77;54.29
77056;SHT30;67471;44.918;8.614;2023-07-28T01:57:39;22.86;54.31
77056;SHT30;67471;44.918;8.614;2023-07-28T02:00:44;22.83;54.37
77056;SHT30;67471;44.918;8.614;2023-07-28T02:03:50;22.76;54.26
77056;SHT30;67471;44.918;8.614;2023-07-28T02:06:53;22.53;54.84
77056;SHT30;67471;44.918;8.614;2023-07-28T02:09:57;22.50;55.23
77056;SHT30;67471;44.918;8.614;2023-07-28T02:13:01;22.50;55.16
77056;SHT30;67471;44.918;8.614;2023-07-28T02:16:04;22.47;55.25
77056;SHT30;67471;44.918;8.614;2023-07-28T02:19:08;22.47;55.29
77056;SHT30;67471;44.918;8.614;2023-07-28T02:22:12;22.47;55.91
77056;SHT30;67471;44.918;8.614;2023-07-28T02:25:16;22.55;56.21
77056;SHT30;67471;44.918;8.614;2023-07-28T02:28:19;22.59;56.57
77056;SHT30;67471;44.918;8.614;2023-07-28T02:31:23;22.59;56.83
77056;SHT30;67471;44.918;8.614;2023-07-28T02:34:27;22.52;57.60
77056;SHT30;67471;44.918;8.614;2023-07-28T02:37:31;22.56;57.70
77056;SHT30;67471;44.918;8.614;2023-07-28T02:40:34;22.40;58.53
77056;SHT30;67471;44.918;8.614;2023-07-28T02:43:41;22.33;58.90
77056;SHT30;67471;44.918;8.614;2023-07-28T02:46:45;22.40;58.34
77056;SHT30;67471;44.918;8.614;2023-07-28T02:49:49;22.49;57.76
77056;SHT30;67471;44.918;8.614;2023-07-28T02:52:52;22.43;57.50
77056;SHT30;67471;44.918;8.614;2023-07-28T02:55:56;22.39;57.00
77056;SHT30;67471;44.918;8.614;2023-07-28T02:59:00;22.30;57.09
77056;SHT30;67471;44.918;8.614;2023-07-28T03:02:05;22.19;57.04
77056;SHT30;67471;44.918;8.614;2023-07-28T03:05:09;22.09;57.38
77056;SHT30;67471;44.918;8.614;2023-07-28T03:08:25;22.08;57.42
77056;SHT30;67471;44.918;8.614;2023-07-28T03:11:30;22.02;57.47
77056;SHT30;67471;44.918;8.614;2023-07-28T03:14:34;21.99;57.10
77056;SHT30;67471;44.918;8.614;2023-07-28T03:17:38;21.92;57.26
77056;SHT30;67471;44.918;8.614;2023-07-28T03:20:42;21.94;57.13
77056;SHT30;67471;44.918;8.614;2023-07-28T03:23:46;21.81;57.61
77056;SHT30;67471;44.918;8.614;2023-07-28T03:26:49;21.67;58.43
77056;SHT30;67471;44.918;8.614;2023-07-28T03:29:53;21.73;58.18
77056;SHT30;67471;44.918;8.614;2023-07-28T03:32:59;21.71;58.14
77056;SHT30;67471;44.918;8.614;2023-07-28T03:36:03;21.58;58.26
77056;SHT30;67471;44.918;8.614;2023-07-28T03:39:09;21.61;57.90
77056;SHT30;67471;44.918;8.614;2023-07-28T03:42:13;21.54;57.94
77056;SHT30;67471;44.918;8.614;2023-07-28T03:45:18;21.38;58.51
77056;SHT30;67471;44.918;8.614;2023-07-28T03:48:21;21.38;58.97
77056;SHT30;67471;44.918;8.614;2023-07-28T03:51:25;21.46;58.83
77056;SHT30;67471;44.918;8.614;2023-07-28T03:54:29;21.37;58.86
77056;SHT30;67471;44.918;8.614;2023-07-28T03:57:33;21.47;58.96
77056;SHT30;67471;44.918;8.614;2023-07-28T04:00:36;21.40;59.22
77056;SHT30;67471;44.918;8.614;2023-07-28T04:03:40;21.38;59.08
77056;SHT30;67471;44.918;8.614;2023-07-28T04:06:46;21.41;59.29
77056;SHT30;67471;44.918;8.614;2023-07-28T04:09:50;21.43;59.46
77056;SHT30;67471;44.918;8.614;2023-07-28T04:12:53;21.40;59.62
77056;SHT30;67471;44.918;8.614;2023-07-28T04:15:57;21.40;59.29
77056;SHT30;67471;44.918;8.614;2023-07-28T04:19:01;21.41;59.37
77056;SHT30;67471;44.918;8.614;2023-07-28T04:22:05;21.46;60.84
77056;SHT30;67471;44.918;8.614;2023-07-28T04:25:10;21.44;61.94
77056;SHT30;67471;44.918;8.614;2023-07-28T04:28:19;21.34;62.33
77056;SHT30;67471;44.918;8.614;2023-07-28T04:31:23;21.43;62.10
77056;SHT30;67471;44.918;8.614;2023-07-28T04:34:35;21.48;61.92
77056;SHT30;67471;44.918;8.614;2023-07-28T04:37:52;21.41;61.90
77056;SHT30;67471;44.918;8.614;2023-07-28T04:41:21;21.38;61.86
77056;SHT30;67471;44.918;8.614;2023-07-28T04:44:31;21.30;61.72
77056;SHT30;67471;44.918;8.614;2023-07-28T04:47:38;21.27;61.67
77056;SHT30;67471;44.918;8.614;2023-07-28T04:50:45;21.30;61.91
77056;SHT30;67471;44.918;8.614;2023-07-28T04:54:01;21.40;61.73
77056;SHT30;67471;44.918;8.614;2023-07-28T04:57:08;21.48;61.55
77056;SHT30;67471;44.918;8.614;2023-07-28T05:00:14;21.53;61.28
77056;SHT30;67471;44.918;8.614;2023-07-28T05:03:18;21.57;61.26
77056;SHT30;67471;44.918;8.614;2023-07-28T05:06:42;21.73;61.03
77056;SHT30;67471;44.918;8.614;2023-07-28T05:09:46;21.81;61.49
77056;SHT30;67471;44.918;8.614;2023-07-28T05:12:50;21.84;61.88
77056;SHT30;67471;44.918;8.614;2023-07-28T05:15:54;21.89;61.67
77056;SHT30;67471;44.918;8.614;2023-07-28T05:19:16;21.97;61.24
77056;SHT30;67471;44.918;8.614;2023-07-28T05:22:20;22.04;60.89
77056;SHT30;67471;44.918;8.614;2023-07-28T05:25:27;21.94;61.32
77056;SHT30;67471;44.918;8.614;2023-07-28T05:28:34;22.05;61.02
77056;SHT30;67471;44.918;8.614;2023-07-28T05:31:39;22.13;60.78
77056;SHT30;67471;44.918;8.614;2023-07-28T05:34:50;22.16;60.59
77056;SHT30;67471;44.918;8.614;2023-07-28T05:37:54;22.19;60.54
77056;SHT30;67471;44.918;8.614;2023-07-28T05:40:59;22.22;60.55
77056;SHT30;67471;44.918;8.614;2023-07-28T05:44:07;22.20;60.60
77056;SHT30;67471;44.918;8.614;2023-07-28T05:47:11;22.25;60.57
77056;SHT30;67471;44.918;8.614;2023-07-28T05:50:17;22.32;60.36
77056;SHT30;67471;44.918;8.614;2023-07-28T05:53:21;22.43;60.27
77056;SHT30;67471;44.918;8.614;2023-07-28T05:56:28;22.53;60.07
77056;SHT30;67471;44.918;8.614;2023-07-28T05:59:32;22.70;59.66
77056;SHT30;67471;44.918;8.614;2023-07-28T06:02:36;22.76;59.25
77056;SHT30;67471;44.918;8.614;2023-07-28T06:05:40;22.87;58.98
77056;SHT30;67471;44.918;8.614;2023-07-28T06:08:44;22.87;59.10
77056;SHT30;67471;44.918;8.614;2023-07-28T06:11:47;22.88;59.28
77056;SHT30;67471;44.918;8.614;2023-07-28T06:14:52;22.90;59.21
77056;SHT30;67471;44.918;8.614;2023-07-28T06:17:55;23.03;59.02
77056;SHT30;67471;44.918;8.614;2023-07-28T06:20:59;23.18;58.78
77056;SHT30;67471;44.918;8.614;2023-07-28T06:24:03;23.22;58.79
77056;SHT30;67471;44.918;8.614;2023-07-28T06:27:07;23.34;58.63
77056;SHT30;67471;44.918;8.614;2023-07-28T06:30:15;23.87;57.46
77056;SHT30;67471;44.918;8.614;2023-07-28T06:33:19;25.04;54.65
77056;SHT30;67471;44.918;8.614;2023-07-28T06:36:22;26.35;51.64
77056;SHT30;67471;44.918;8.614;2023-07-28T06:39:26;27.15;49.89
77056;SHT30;67471;44.918;8.614;2023-07-28T06:42:33;27.78;48.13
77056;SHT30;67471;44.918;8.614;2023-07-28T06:45:39;28.24;47.33
77056;SHT30;67471;44.918;8.614;2023-07-28T06:48:42;28.63;46.45
77056;SHT30;67471;44.918;8.614;2023-07-28T06:51:46;28.87;45.95
77056;SHT30;67471;44.918;8.614;2023-07-28T06:54:50;28.83;45.91
77056;SHT30;67471;44.918;8.614;2023-07-28T06:57:54;29.12;45.39
77056;SHT30;67471;44.918;8.614;2023-07-28T07:00:57;29.21;45.52
77056;SHT30;67471;44.918;8.614;2023-07-28T07:04:01;29.29;45.06
77056;SHT30;67471;44.918;8.614;2023-07-28T07:07:05;29.53;44.82
77056;SHT30;67471;44.918;8.614;2023-07-28T07:10:09;29.79;44.11
77056;SHT30;67471;44.918;8.614;2023-07-28T07:13:13;30.03;43.99
77056;SHT30;67471;44.918;8.614;2023-07-28T07:16:17;30.42;43.03
77056;SHT30;67471;44.918;8.614;2023-07-28T07:19:21;30.75;42.34
77056;SHT30;67471;44.918;8.614;2023-07-28T07:22:25;30.93;41.82
77056;SHT30;67471;44.918;8.614;2023-07-28T07:25:29;30.92;41.63
77056;SHT30;67471;44.918;8.614;2023-07-28T07:28:33;30.92;41.83
77056;SHT30;67471;44.918;8.614;2023-07-28T07:31:39;30.68;42.06
77056;SHT30;67471;44.918;8.614;2023-07-28T07:34:43;31.03;41.34
77056;SHT30;67471;44.918;8.614;2023-07-28T07:37:46;31.12;40.95
77056;SHT30;67471;44.918;8.614;2023-07-28T07:40:50;31.23;40.81
77056;SHT30;67471;44.918;8.614;2023-07-28T07:43:54;31.47;40.44
77056;SHT30;67471;44.918;8.614;2023-07-28T07:47:00;31.82;39.94
77056;SHT30;67471;44.918;8.614;2023-07-28T07:50:05;31.95;39.61
77056;SHT30;67471;44.918;8.614;2023-07-28T07:53:09;32.24;39.64
77056;SHT30;67471;44.918;8.614;2023-07-28T07:56:13;32.46;39.01
77056;SHT30;67471;44.918;8.614;2023-07-28T07:59:16;32.63;38.43
77056;SHT30;67471;44.918;8.614;2023-07-28T08:02:20;32.60;38.60
77056;SHT30;67471;44.918;8.614;2023-07-28T08:05:24;32.63;38.63
77056;SHT30;67471;44.918;8.614;2023-07-28T08:08:28;32.80;38.40
77056;SHT30;67471;44.918;8.614;2023-07-28T08:11:32;32.90;38.38
77056;SHT30;67471;44.918;8.614;2023-07-28T08:14:35;32.62;39.01
77056;SHT30;67471;44.918;8.614;2023-07-28T08:17:39;32.14;39.87
77056;SHT30;67471;44.918;8.614;2023-07-28T08:20:43;31.39;41.36
77056;SHT30;67471;44.918;8.614;2023-07-28T08:23:47;31.80;40.61
77056;SHT30;67471;44.918;8.614;2023-07-28T08:26:51;32.14;40.11
77056;SHT30;67471;44.918;8.614;2023-07-28T08:29:54;32.09;40.36
77056;SHT30;67471;44.918;8.614;2023-07-28T08:33:01;32.21;39.67
77056;SHT30;67471;44.918;8.614;2023-07-28T08:36:05;32.18;39.92
77056;SHT30;67471;44.918;8.614;2023-07-28T08:39:09;32.15;40.11
77056;SHT30;67471;44.918;8.614;2023-07-28T08:42:13;32.32;39.70
77056;SHT30;67471;44.918;8.614;2023-07-28T08:45:17;32.77;38.52
77056;SHT30;67471;44.918;8.614;2023-07-28T08:48:23;33.07;37.77
77056;SHT30;67471;44.918;8.614;2023-07-28T08:51:27;33.11;37.70
77056;SHT30;67471;44.918;8.614;2023-07-28T08:54:31;32.97;37.83
77056;SHT30;67471;44.918;8.614;2023-07-28T08:57:35;33.20;37.54
77056;SHT30;67471;44.918;8.614;2023-07-28T09:00:40;33.11;37.71
77056;SHT30;67471;44.918;8.614;2023-07-28T09:03:44;33.34;37.59
77056;SHT30;67471;44.918;8.614;2023-07-28T09:06:48;33.58;37.30
77056;SHT30;67471;44.918;8.614;2023-07-28T09:09:59;33.67;36.83
77056;SHT30;67471;44.918;8.614;2023-07-28T09:13:11;33.65;36.73
77056;SHT30;67471;44.918;8.614;2023-07-28T09:16:19;33.88;36.64
77056;SHT30;67471;44.918;8.614;2023-07-28T09:19:23;34.17;36.41
77056;SHT30;67471;44.918;8.614;2023-07-28T09:22:29;33.76;36.86
77056;SHT30;67471;44.918;8.614;2023-07-28T09:25:37;33.86;36.90
77056;SHT30;67471;44.918;8.614;2023-07-28T09:28:41;34.02;36.49
77056;SHT30;67471;44.918;8.614;2023-07-28T09:31:46;33.84;36.92
77056;SHT30;67471;44.918;8.614;2023-07-28T09:35:05;33.72;37.45
77056;SHT30;67471;44.918;8.614;2023-07-28T09:38:10;34.08;36.82
77056;SHT30;67471;44.918;8.614;2023-07-28T09:41:14;33.50;38.01
77056;SHT30;67471;44.918;8.614;2023-07-28T09:44:18;32.99;38.96
77056;SHT30;67471;44.918;8.614;2023-07-28T09:47:22;32.82;39.06
77056;SHT30;67471;44.918;8.614;2023-07-28T09:50:29;32.99;38.45
77056;SHT30;67471;44.918;8.614;2023-07-28T09:53:40;33.02;38.49
77056;SHT30;67471;44.918;8.614;2023-07-28T09:56:47;33.30;38.17
77056;SHT30;67471;44.918;8.614;2023-07-28T09:59:53;32.87;38.64
77056;SHT30;67471;44.918;8.614;2023-07-28T10:02:58;32.35;39.52
77056;SHT30;67471;44.918;8.614;2023-07-28T10:06:02;32.45;39.46
77056;SHT30;67471;44.918;8.614;2023-07-28T10:09:06;32.59;39.14
77056;SHT30;67471;44.918;8.614;2023-07-28T10:12:18;32.87;38.59
77056;SHT30;67471;44.918;8.614;2023-07-28T10:15:29;33.11;38.18
77056;SHT30;67471;44.918;8.614;2023-07-28T10:18:33;33.24;37.82
77056;SHT30;67471;44.918;8.614;2023-07-28T10:21:40;33.57;37.36
77056;SHT30;67471;44.918;8.614;2023-07-28T10:25:03;33.64;37.19
77056;SHT30;67471;44.918;8.614;2023-07-28T10:28:37;32.90;38.57
77056;SHT30;67471;44.918;8.614;2023-07-28T10:31:53;33.18;38.36
77056;SHT30;67471;44.918;8.614;2023-07-28T10:35:03;33.41;37.86
77056;SHT30;67471;44.918;8.614;2023-07-28T10:38:29;32.15;39.65
77056;SHT30;67471;44.918;8.614;2023-07-28T10:41:35;32.48;39.22
77056;SHT30;67471;44.918;8.614;2023-07-28T10:44:39;33.06;38.29
77056;SHT30;67471;44.918;8.614;2023-07-28T10:47:43;32.89;38.94
77056;SHT30;67471;44.918;8.614;2023-07-28T10:50:47;32.69;39.39
77056;SHT30;67471;44.918;8.614;2023-07-28T10:53:56;32.48;39.88
77056;SHT30;67471;44.918;8.614;2023-07-28T10:57:03;32.28;40.22
77056;SHT30;67471;44.918;8.614;2023-07-28T11:00:07;31.30;41.84
77056;SHT30;67471;44.918;8.614;2023-07-28T11:03:12;31.61;41.37
77056;SHT30;67471;44.918;8.614;2023-07-28T11:06:15;32.04;40.22
77056;SHT30;67471;44.918;8.614;2023-07-28T11:09:22;32.35;39.48
77056;SHT30;67471;44.918;8.614;2023-07-28T11:12:27;32.69;38.83
77056;SHT30;67471;44.918;8.614;2023-07-28T11:15:31;33.13;38.06
77056;SHT30;67471;44.918;8.614;2023-07-28T11:18:35;32.70;38.74
77056;SHT30;67471;44.918;8.614;2023-07-28T11:21:40;32.32;39.35
77056;SHT30;67471;44.918;8.614;2023-07-28T11:24:44;32.05;40.03
77056;SHT30;67471;44.918;8.614;2023-07-28T11:27:49;32.24;39.79
77056;SHT30;67471;44.918;8.614;2023-07-28T11:30:53;32.38;39.62
77056;SHT30;67471;44.918;8.614;2023-07-28T11:33:56;32.24;39.77
77056;SHT30;67471;44.918;8.614;2023-07-28T11:37:00;32.35;39.61
77056;SHT30;67471;44.918;8.614;2023-07-28T11:40:06;32.46;39.48
77056;SHT30;67471;44.918;8.614;2023-07-28T11:43:11;32.18;39.86
77056;SHT30;67471;44.918;8.614;2023-07-28T11:46:40;32.27;40.13
77056;SHT30;67471;44.918;8.614;2023-07-28T11:49:48;31.71;40.92
77056;SHT30;67471;44.918;8.614;2023-07-28T11:52:52;31.26;41.66
77056;SHT30;67471;44.918;8.614;2023-07-28T11:55:56;31.44;41.18
77056;SHT30;67471;44.918;8.614;2023-07-28T11:59:01;31.49;40.81
77056;SHT30;67471;44.918;8.614;2023-07-28T12:02:09;31.77;40.36
77056;SHT30;67471;44.918;8.614;2023-07-28T12:05:14;32.22;39.59
77056;SHT30;67471;44.918;8.614;2023-07-28T12:08:36;31.94;40.17
77056;SHT30;67471;44.918;8.614;2023-07-28T12:11:43;32.02;40.03
77056;SHT30;67471;44.918;8.614;2023-07-28T12:14:48;32.09;39.54
77056;SHT30;67471;44.918;8.614;2023-07-28T12:18:10;32.17;39.45
77056;SHT30;67471;44.918;8.614;2023-07-28T12:21:14;32.25;39.21
77056;SHT30;67471;44.918;8.614;2023-07-28T12:24:18;32.35;38.82
77056;SHT30;67471;44.918;8.614;2023-07-28T12:27:24;32.19;39.03
77056;SHT30;67471;44.918;8.614;2023-07-28T12:30:29;32.21;39.06
77056;SHT30;67471;44.918;8.614;2023-07-28T12:33:33;32.08;39.38
77056;SHT30;67471;44.918;8.614;2023-07-28T12:36:37;32.08;38.79
77056;SHT30;67471;44.918;8.614;2023-07-28T12:39:41;32.14;38.69
77056;SHT30;67471;44.918;8.614;2023-07-28T12:42:45;32.21;38.44
77056;SHT30;67471;44.918;8.614;2023-07-28T12:45:50;32.01;38.55
77056;SHT30;67471;44.918;8.614;2023-07-28T12:48:54;31.68;39.22
77056;SHT30;67471;44.918;8.614;2023-07-28T12:51:58;31.59;39.45
77056;SHT30;67471;44.918;8.614;2023-07-28T12:55:03;31.76;39.20
77056;SHT30;67471;44.918;8.614;2023-07-28T12:58:07;31.88;39.07
77056;SHT30;67471;44.918;8.614;2023-07-28T13:01:10;31.39;39.92
77056;SHT30;67471;44.918;8.614;2023-07-28T13:04:15;31.60;39.56
77056;SHT30;67471;44.918;8.614;2023-07-28T13:07:19;31.77;39.34
77056;SHT30;67471;44.918;8.614;2023-07-28T13:10:23;31.81;39.09
77056;SHT30;67471;44.918;8.614;2023-07-28T13:13:26;31.95;38.33
77056;SHT30;67471;44.918;8.614;2023-07-28T13:16:33;32.19;38.67
77056;SHT30;67471;44.918;8.614;2023-07-28T13:19:37;32.25;38.43
77056;SHT30;67471;44.918;8.614;2023-07-28T13:22:40;32.09;39.58
77056;SHT30;67471;44.918;8.614;2023-07-28T13:25:44;32.04;39.29
77056;SHT30;67471;44.918;8.614;2023-07-28T13:28:48;32.05;39.33
77056;SHT30;67471;44.918;8.614;2023-07-28T13:31:57;32.05;39.25
77056;SHT30;67471;44.918;8.614;2023-07-28T13:35:03;31.87;39.51
77056;SHT30;67471;44.918;8.614;2023-07-28T13:38:07;31.82;40.23
77056;SHT30;67471;44.918;8.614;2023-07-28T13:41:10;31.46;41.31
77056;SHT30;67471;44.918;8.614;2023-07-28T13:44:15;31.66;40.98
77056;SHT30;67471;44.918;8.614;2023-07-28T13:47:18;31.70;41.44
77056;SHT30;67471;44.918;8.614;2023-07-28T13:50:22;31.59;41.97
77056;SHT30;67471;44.918;8.614;2023-07-28T13:53:27;31.57;41.75
77056;SHT30;67471;44.918;8.614;2023-07-28T13:56:31;31.43;41.54
77056;SHT30;67471;44.918;8.614;2023-07-28T13:59:35;31.68;40.93
77056;SHT30;67471;44.918;8.614;2023-07-28T14:02:39;31.57;40.77
77056;SHT30;67471;44.918;8.614;2023-07-28T14:05:44;31.57;40.35
77056;SHT30;67471;44.918;8.614;2023-07-28T14:08:48;31.57;41.01
77056;SHT30;67471;44.918;8.614;2023-07-28T14:11:52;31.29;41.36
77056;SHT30;67471;44.918;8.614;2023-07-28T14:14:56;31.39;40.75
77056;SHT30;67471;44.918;8.614;2023-07-28T14:17:59;31.27;41.24
77056;SHT30;67471;44.918;8.614;2023-07-28T14:21:04;31.29;41.38
77056;SHT30;67471;44.918;8.614;2023-07-28T14:24:07;31.15;41.39
77056;SHT30;67471;44.918;8.614;2023-07-28T14:27:12;31.18;41.32
77056;SHT30;67471;44.918;8.614;2023-07-28T14:30:16;30.95;42.47
77056;SHT30;67471;44.918;8.614;2023-07-28T14:33:20;31.02;42.37
77056;SHT30;67471;44.918;8.614;2023-07-28T14:36:24;31.09;42.18
77056;SHT30;67471;44.918;8.614;2023-07-28T14:39:28;30.58;44.27
77056;SHT30;67471;44.918;8.614;2023-07-28T14:42:31;30.18;45.74
77056;SHT30;67471;44.918;8.614;2023-07-28T14:45:35;30.16;46.52
77056;SHT30;67471;44.918;8.614;2023-07-28T14:48:39;29.91;46.82
77056;SHT30;67471;44.918;8.614;2023-07-28T14:51:42;30.11;46.48
77056;SHT30;67471;44.918;8.614;2023-07-28T14:54:46;30.42;46.09
77056;SHT30;67471;44.918;8.614;2023-07-28T14:57:50;29.86;47.12
77056;SHT30;67471;44.918;8.614;2023-07-28T15:00:55;29.84;46.69
77056;SHT30;67471;44.918;8.614;2023-07-28T15:03:58;30.17;46.46
77056;SHT30;67471;44.918;8.614;2023-07-28T15:07:05;29.93;47.02
77056;SHT30;67471;44.918;8.614;2023-07-28T15:10:09;29.76;47.70
77056;SHT30;67471;44.918;8.614;2023-07-28T15:13:12;29.62;48.21
77056;SHT30;67471;44.918;8.614;2023-07-28T15:16:16;29.38;49.21
77056;SHT30;67471;44.918;8.614;2023-07-28T15:19:20;29.07;49.60
77056;SHT30;67471;44.918;8.614;2023-07-28T15:22:24;28.97;50.07
77056;SHT30;67471;44.918;8.614;2023-07-28T15:25:28;28.77;51.08
77056;SHT30;67471;44.918;8.614;2023-07-28T15:28:32;28.78;51.11
77056;SHT30;67471;44.918;8.614;2023-07-28T15:31:36;28.86;50.96
77056;SHT30;67471;44.918;8.614;2023-07-28T15:34:39;28.95;51.43
77056;SHT30;67471;44.918;8.614;2023-07-28T15:37:44;28.86;52.31
77056;SHT30;67471;44.918;8.614;2023-07-28T15:40:48;28.90;52.01
77056;SHT30;67471;44.918;8.614;2023-07-28T15:43:55;28.92;51.97
77056;SHT30;67471;44.918;8.614;2023-07-28T15:46:59;28.73;52.67
77056;SHT30;67471;44.918;8.614;2023-07-28T15:50:03;28.86;52.30
77056;SHT30;67471;44.918;8.614;2023-07-28T15:53:09;28.86;52.65
77056;SHT30;67471;44.918;8.614;2023-07-28T15:56:13;28.88;52.84
77056;SHT30;67471;44.918;8.614;2023-07-28T15:59:17;29.02;52.90
77056;SHT30;67471;44.918;8.614;2023-07-28T16:02:21;29.10;52.54
77056;SHT30;67471;44.918;8.614;2023-07-28T16:05:24;29.14;52.34
77056;SHT30;67471;44.918;8.614;2023-07-28T16:08:28;29.08;51.98
77056;SHT30;67471;44.918;8.614;2023-07-28T16:11:32;29.04;52.26
77056;SHT30;67471;44.918;8.614;2023-07-28T16:14:39;29.00;52.37
77056;SHT30;67471;44.918;8.614;2023-07-28T16:17:43;28.73;53.25
77056;SHT30;67471;44.918;8.614;2023-07-28T16:20:46;28.53;53.77
77056;SHT30;67471;44.918;8.614;2023-07-28T16:23:50;28.67;53.03
77056;SHT30;67471;44.918;8.614;2023-07-28T16:26:54;28.81;52.57
77056;SHT30;67471;44.918;8.614;2023-07-28T16:29:57;28.61;52.53
77056;SHT30;67471;44.918;8.614;2023-07-28T16:33:01;28.68;51.98
77056;SHT30;67471;44.918;8.614;2023-07-28T16:36:05;28.65;51.55
77056;SHT30;67471;44.918;8.614;2023-07-28T16:39:08;28.80;51.25
77056;SHT30;67471;44.918;8.614;2023-07-28T16:42:12;28.86;51.01
77056;SHT30;67471;44.918;8.614;2023-07-28T16:45:16;28.78;50.87
77056;SHT30;67471;44.918;8.614;2023-07-28T16:48:20;28.44;51.54
77056;SHT30;67471;44.918;8.614;2023-07-28T16:51:23;28.33;51.41
77056;SHT30;67471;44.918;8.614;2023-07-28T16:54:28;28.20;51.53
77056;SHT30;67471;44.918;8.614;2023-07-28T16:57:32;28.02;52.08
77056;SHT30;67471;44.918;8.614;2023-07-28T17:00:35;27.80;52.48
77056;SHT30;67471;44.918;8.614;2023-07-28T17:03:39;27.51;53.62
77056;SHT30;67471;44.918;8.614;2023-07-28T17:06:43;27.58;53.67
77056;SHT30;67471;44.918;8.614;2023-07-28T17:09:47;27.45;54.40
77056;SHT30;67471;44.918;8.614;2023-07-28T17:12:51;27.29;55.07
77056;SHT30;67471;44.918;8.614;2023-07-28T17:15:54;27.26;55.35
77056;SHT30;67471;44.918;8.614;2023-07-28T17:18:58;27.23;55.67
77056;SHT30;67471;44.918;8.614;2023-07-28T17:22:02;27.29;55.69
77056;SHT30;67471;44.918;8.614;2023-07-28T17:25:06;27.21;56.08
77056;SHT30;67471;44.918;8.614;2023-07-28T17:28:10;27.10;56.41
77056;SHT30;67471;44.918;8.614;2023-07-28T17:31:14;27.00;56.98
77056;SHT30;67471;44.918;8.614;2023-07-28T17:34:17;27.00;57.25
77056;SHT30;67471;44.918;8.614;2023-07-28T17:37:21;26.78;57.93
77056;SHT30;67471;44.918;8.614;2023-07-28T17:40:25;26.79;58.16
77056;SHT30;67471;44.918;8.614;2023-07-28T17:43:28;26.92;57.96
77056;SHT30;67471;44.918;8.614;2023-07-28T17:46:32;26.97;57.78
77056;SHT30;67471;44.918;8.614;2023-07-28T17:49:36;26.72;58.38
77056;SHT30;67471;44.918;8.614;2023-07-28T17:52:42;26.42;59.03
77056;SHT30;67471;44.918;8.614;2023-07-28T17:55:46;26.14;59.86
77056;SHT30;67471;44.918;8.614;2023-07-28T17:58:49;26.15;59.78
77056;SHT30;67471;44.918;8.614;2023-07-28T18:01:53;26.21;59.49
77056;SHT30;67471;44.918;8.614;2023-07-28T18:04:57;26.11;59.61
77056;SHT30;67471;44.918;8.614;2023-07-28T18:08:01;26.05;59.64
77056;SHT30;67471;44.918;8.614;2023-07-28T18:11:05;26.00;59.83
77056;SHT30;67471;44.918;8.614;2023-07-28T18:14:09;26.04;59.73
77056;SHT30;67471;44.918;8.614;2023-07-28T18:17:15;26.04;59.62
77056;SHT30;67471;44.918;8.614;2023-07-28T18:20:19;26.09;59.49
77056;SHT30;67471;44.918;8.614;2023-07-28T18:23:24;26.06;59.58
77056;SHT30;67471;44.918;8.614;2023-07-28T18:26:28;25.93;59.86
77056;SHT30;67471;44.918;8.614;2023-07-28T18:29:32;25.97;59.75
77056;SHT30;67471;44.918;8.614;2023-07-28T18:32:36;25.98;59.76
77056;SHT30;67471;44.918;8.614;2023-07-28T18:35:39;25.90;60.07
77056;SHT30;67471;44.918;8.614;2023-07-28T18:38:43;25.87;60.29
77056;SHT30;67471;44.918;8.614;2023-07-28T18:41:47;25.80;60.43
77056;SHT30;67471;44.918;8.614;2023-07-28T18:44:53;25.80;60.48
77056;SHT30;67471;44.918;8.614;2023-07-28T18:47:57;25.78;60.62
77056;SHT30;67471;44.918;8.614;2023-07-28T18:51:01;25.71;60.82
77056;SHT30;67471;44.918;8.614;2023-07-28T18:54:06;25.84;60.53
77056;SHT30;67471;44.918;8.614;2023-07-28T18:57:10;25.81;60.72
77056;SHT30;67471;44.918;8.614;2023-07-28T19:00:14;25.66;61.24
77056;SHT30;67471;44.918;8.614;2023-07-28T19:03:17;25.60;61.45
77056;SHT30;67471;44.918;8.614;2023-07-28T19:06:21;25.63;61.58
77056;SHT30;67471;44.918;8.614;2023-07-28T19:09:28;25.64;61.66
77056;SHT30;67471;44.918;8.614;2023-07-28T19:12:32;25.59;62.08
77056;SHT30;67471;44.918;8.614;2023-07-28T19:15:36;25.66;61.96
77056;SHT30;67471;44.918;8.614;2023-07-28T19:18:40;25.56;62.34
77056;SHT30;67471;44.918;8.614;2023-07-28T19:21:43;25.54;62.36
77056;SHT30;67471;44.918;8.614;2023-07-28T19:24:48;25.46;62.67
77056;SHT30;67471;44.918;8.614;2023-07-28T19:27:52;25.49;62.73
77056;SHT30;67471;44.918;8.614;2023-07-28T19:30:57;25.44;62.82